createdAt,value
2017-11-06T00:02:22.422Z,2.40
2017-11-06T00:04:49.066Z,3.40
2017-11-06T00:07:15.733Z,2.72
2017-11-06T00:09:42.395Z,3.10
2017-11-06T00:12:09.077Z,3.17
2017-11-06T00:14:35.727Z,3.10
2017-11-06T00:17:02.373Z,2.70
2017-11-06T00:19:29.059Z,4.43
2017-11-06T00:21:55.711Z,2.97
2017-11-06T00:24:22.360Z,4.30
2017-11-06T00:26:49.032Z,2.90
2017-11-06T00:29:15.713Z,3.15
2017-11-06T00:31:42.386Z,2.90
2017-11-06T00:34:09.032Z,3.30
2017-11-06T00:36:35.709Z,3.90
2017-11-06T00:39:02.376Z,3.67
2017-11-06T00:41:29.023Z,3.50
2017-11-06T00:43:55.685Z,5.32
2017-11-06T00:46:22.344Z,3.28
2017-11-06T00:48:49.003Z,4.00
2017-11-06T00:51:15.667Z,1.70
2017-11-06T00:53:42.334Z,2.50
2017-11-06T00:56:09.001Z,3.80
2017-11-06T00:58:35.652Z,2.87
2017-11-06T01:01:02.340Z,3.50
2017-11-06T01:03:28.985Z,2.37
2017-11-06T01:05:55.635Z,4.00
2017-11-06T01:08:22.305Z,4.10
2017-11-06T01:10:48.965Z,3.50
2017-11-06T01:13:15.610Z,3.70
2017-11-06T01:15:42.251Z,2.70
2017-11-06T01:18:08.923Z,4.97
2017-11-06T01:20:35.566Z,3.50
2017-11-06T01:23:02.237Z,3.80
2017-11-06T01:25:28.892Z,5.07
2017-11-06T01:27:55.533Z,2.80
2017-11-06T01:30:22.327Z,2.80
2017-11-06T01:32:48.968Z,4.70
2017-11-06T01:35:15.623Z,3.12
2017-11-06T01:37:42.307Z,3.23
2017-11-06T01:40:08.940Z,2.40
2017-11-06T01:42:35.584Z,8.20
2017-11-06T01:45:02.250Z,3.53
2017-11-06T01:47:28.891Z,3.63
2017-11-06T01:49:55.535Z,10.83
2017-11-06T01:52:22.193Z,2.53
2017-11-06T01:54:49.017Z,3.47
2017-11-06T01:57:15.665Z,5.00
2017-11-06T01:59:42.305Z,3.67
2017-11-06T02:02:08.980Z,5.93
2017-11-06T02:04:35.788Z,3.90
2017-11-06T02:07:02.429Z,3.57
2017-11-06T02:09:29.074Z,4.70
2017-11-06T02:11:55.753Z,3.27
2017-11-06T02:14:22.421Z,2.83
2017-11-06T02:16:49.064Z,3.80
2017-11-06T02:19:15.712Z,3.95
2017-11-06T02:21:42.377Z,5.90
2017-11-06T02:24:09.030Z,4.03
2017-11-06T02:26:35.858Z,2.80
2017-11-06T02:29:02.510Z,6.80
2017-11-06T02:31:29.187Z,3.30
2017-11-06T02:33:55.902Z,5.07
2017-11-06T02:36:22.577Z,2.77
2017-11-06T02:38:49.222Z,4.13
2017-11-06T02:41:15.880Z,4.28
2017-11-06T02:43:42.522Z,5.32
2017-11-06T02:46:09.160Z,4.35
2017-11-06T02:48:35.896Z,3.90
2017-11-06T02:51:02.564Z,3.37
2017-11-06T02:53:29.232Z,5.13
2017-11-06T02:55:55.870Z,3.77
2017-11-06T02:58:22.548Z,4.30
2017-11-06T03:00:49.185Z,4.27
2017-11-06T03:03:15.849Z,3.60
2017-11-06T03:05:42.526Z,4.53
2017-11-06T03:08:09.163Z,4.00
2017-11-06T03:10:35.845Z,3.10
2017-11-06T03:13:02.517Z,4.03
2017-11-06T03:15:29.185Z,4.10
2017-11-06T03:17:55.828Z,4.90
2017-11-06T03:20:22.493Z,4.90
2017-11-06T03:22:49.138Z,5.73
2017-11-06T03:25:15.819Z,5.53
2017-11-06T03:27:42.487Z,6.10
2017-11-06T03:30:09.130Z,5.07
2017-11-06T03:32:35.796Z,6.30
2017-11-06T03:35:02.472Z,8.82
2017-11-06T03:37:29.120Z,5.70
2017-11-06T03:39:55.779Z,4.80
2017-11-06T03:42:22.420Z,6.90
2017-11-06T03:44:49.081Z,7.20
2017-11-06T03:47:15.752Z,9.75
2017-11-06T03:49:42.415Z,7.35
2017-11-06T03:52:09.060Z,7.00
2017-11-06T03:54:35.716Z,7.50
2017-11-06T03:57:02.389Z,7.28
2017-11-06T03:59:29.074Z,9.95
2017-11-06T04:01:55.737Z,10.70
2017-11-06T04:04:22.416Z,8.50
2017-11-06T04:06:49.048Z,8.47
2017-11-06T04:09:15.700Z,11.37
2017-11-06T04:11:42.379Z,11.10
2017-11-06T04:14:09.054Z,13.90
2017-11-06T04:16:35.704Z,13.88
2017-11-06T04:19:02.385Z,13.15
2017-11-06T04:21:29.036Z,12.00
2017-11-06T04:23:55.713Z,13.18
2017-11-06T04:26:22.382Z,24.52
2017-11-06T04:28:49.048Z,9.37
2017-11-06T04:31:15.689Z,9.67
2017-11-06T04:33:45.047Z,6.57
2017-11-06T04:36:11.685Z,9.77
2017-11-06T04:38:38.361Z,18.13
2017-11-06T04:41:05.001Z,9.33
2017-11-06T04:43:31.673Z,11.83
2017-11-06T04:45:58.329Z,13.67
2017-11-06T04:48:25.003Z,14.83
2017-11-06T04:50:51.680Z,13.87
2017-11-06T04:53:18.349Z,14.97
2017-11-06T04:55:44.992Z,15.00
2017-11-06T04:58:11.673Z,18.40
2017-11-06T05:00:38.524Z,16.30
2017-11-06T05:03:05.185Z,21.48
2017-11-06T05:05:31.829Z,15.63
2017-11-06T05:07:58.502Z,17.33
2017-11-06T05:10:25.152Z,21.60
2017-11-06T05:12:51.846Z,16.90
2017-11-06T05:15:18.517Z,20.08
2017-11-06T05:17:45.169Z,13.43
2017-11-06T05:20:11.840Z,12.07
2017-11-06T05:22:38.528Z,21.60
2017-11-06T05:25:05.198Z,17.77
2017-11-06T05:34:14.436Z,30.00
2017-11-06T05:36:41.081Z,18.13
2017-11-06T05:39:07.766Z,17.52
2017-11-06T05:41:34.443Z,18.73
2017-11-06T05:44:01.088Z,9.68
2017-11-06T05:46:27.737Z,14.90
2017-11-06T05:48:54.415Z,16.52
2017-11-06T05:51:21.088Z,14.23
2017-11-06T05:53:47.728Z,17.27
2017-11-06T05:56:14.601Z,11.60
2017-11-06T05:58:41.257Z,13.90
2017-11-06T06:01:07.921Z,7.10
2017-11-06T06:03:34.579Z,12.98
2017-11-06T06:06:01.262Z,10.60
2017-11-06T06:08:27.904Z,7.13
2017-11-06T06:10:54.553Z,8.80
2017-11-06T06:13:21.242Z,5.70
2017-11-06T06:15:47.901Z,6.83
2017-11-06T06:18:14.569Z,6.30
2017-11-06T06:20:41.211Z,6.03
2017-11-06T06:23:07.873Z,10.13
2017-11-06T06:25:34.541Z,12.70
2017-11-06T06:28:01.204Z,6.07
2017-11-06T06:30:27.852Z,7.80
2017-11-06T06:32:54.493Z,7.70
2017-11-06T06:35:21.156Z,6.40
2017-11-06T06:37:47.796Z,7.77
2017-11-06T06:40:14.641Z,6.40
2017-11-06T06:42:41.279Z,8.90
2017-11-06T06:45:07.925Z,8.60
2017-11-06T06:47:34.596Z,8.43
2017-11-06T06:50:01.241Z,9.20
2017-11-06T06:52:27.921Z,7.87
2017-11-06T06:54:54.574Z,8.90
2017-11-06T06:57:21.226Z,13.38
2017-11-06T06:59:47.900Z,10.20
2017-11-06T07:02:14.566Z,15.73
2017-11-06T07:04:41.212Z,16.60
2017-11-06T07:07:07.893Z,8.57
2017-11-06T07:09:34.537Z,6.70
2017-11-06T07:12:01.203Z,7.30
2017-11-06T07:14:28.217Z,9.43
2017-11-06T07:23:37.225Z,6.40
2017-11-06T07:26:03.904Z,9.37
2017-11-06T07:28:30.565Z,8.27
2017-11-06T07:30:57.231Z,9.90
2017-11-06T07:33:23.888Z,9.03
2017-11-06T07:35:50.533Z,7.77
2017-11-06T07:38:17.177Z,6.80
2017-11-06T07:40:43.840Z,7.30
2017-11-06T07:43:10.480Z,7.20
2017-11-06T07:45:37.156Z,8.13
2017-11-06T07:48:03.835Z,9.13
2017-11-06T07:50:30.474Z,6.07
2017-11-06T07:52:57.124Z,8.10
2017-11-06T07:55:23.792Z,6.50
2017-11-06T07:57:50.430Z,6.83
2017-11-06T08:00:17.124Z,4.63
2017-11-06T08:02:43.769Z,7.43
2017-11-06T08:05:10.420Z,6.00
2017-11-06T08:07:37.084Z,6.10
2017-11-06T08:10:03.901Z,6.53
2017-11-06T08:12:30.922Z,4.40
2017-11-06T08:14:57.562Z,5.80
2017-11-06T08:17:24.226Z,4.30
2017-11-06T08:19:50.899Z,10.53
2017-11-06T08:22:17.544Z,6.17
2017-11-06T08:24:44.204Z,5.17
2017-11-06T08:27:10.836Z,5.03
2017-11-06T08:29:37.501Z,4.80
2017-11-06T08:32:04.141Z,4.37
2017-11-06T08:34:30.807Z,5.30
2017-11-06T08:36:57.468Z,4.37
2017-11-06T08:39:24.117Z,3.30
2017-11-06T08:41:50.788Z,4.07
2017-11-06T08:44:17.465Z,3.73
2017-11-06T08:46:44.104Z,5.10
2017-11-06T08:49:10.775Z,5.60
2017-11-06T08:51:37.414Z,6.47
2017-11-06T08:54:04.081Z,5.53
2017-11-06T08:56:30.716Z,5.90
2017-11-06T08:58:57.371Z,6.10
2017-11-06T09:01:24.074Z,5.00
2017-11-06T09:03:50.712Z,4.57
2017-11-06T09:06:17.353Z,5.17
2017-11-06T09:08:44.037Z,3.73
2017-11-06T09:11:10.700Z,4.80
2017-11-06T09:13:37.342Z,4.60
2017-11-06T09:16:03.981Z,5.00
2017-11-06T09:18:30.639Z,4.00
2017-11-06T09:20:57.280Z,5.80
2017-11-06T09:23:24.136Z,4.73
2017-11-06T09:25:50.774Z,3.13
2017-11-06T09:28:18.020Z,3.87
2017-11-06T09:30:45.001Z,4.67
2017-11-06T09:33:11.643Z,4.37
2017-11-06T09:35:38.285Z,5.10
2017-11-06T09:38:04.949Z,4.40
2017-11-06T09:40:31.638Z,4.80
2017-11-06T09:42:58.275Z,5.30
2017-11-06T09:45:24.913Z,4.83
2017-11-06T09:47:51.577Z,4.30
2017-11-06T09:50:18.217Z,5.70
2017-11-06T09:52:45.057Z,3.90
2017-11-06T09:55:11.698Z,5.33
2017-11-06T09:57:38.356Z,5.93
2017-11-06T10:06:47.522Z,4.70
2017-11-06T10:09:14.160Z,6.47
2017-11-06T10:11:40.798Z,5.07
2017-11-06T10:14:07.466Z,5.07
2017-11-06T10:16:34.125Z,5.20
2017-11-06T10:19:00.765Z,5.80
2017-11-06T10:21:27.417Z,4.90
2017-11-06T10:23:54.056Z,5.97
2017-11-06T10:26:20.732Z,5.77
2017-11-06T10:28:47.368Z,5.10
2017-11-06T10:31:14.030Z,6.03
2017-11-06T10:33:40.693Z,7.03
2017-11-06T10:36:07.344Z,6.20
2017-11-06T10:38:34.024Z,6.07
2017-11-06T10:41:00.665Z,6.43
2017-11-06T10:43:27.317Z,7.00
2017-11-06T10:45:54.018Z,7.50
2017-11-06T10:48:20.658Z,7.70
2017-11-06T10:50:47.321Z,6.97
2017-11-06T10:53:14.401Z,6.40
2017-11-06T10:55:41.052Z,12.40
2017-11-06T10:58:07.717Z,8.40
2017-11-06T11:00:34.379Z,8.63
2017-11-06T11:03:01.028Z,8.33
2017-11-06T11:05:27.716Z,8.27
2017-11-06T11:07:54.383Z,8.30
2017-11-06T11:10:21.048Z,12.73
2017-11-06T11:12:47.696Z,9.20
2017-11-06T11:15:14.371Z,9.73
2017-11-06T11:17:41.035Z,8.83
2017-11-06T11:20:07.679Z,9.10
2017-11-06T11:22:34.347Z,14.07
2017-11-06T11:25:00.985Z,7.93
2017-11-06T11:27:27.649Z,8.50
2017-11-06T11:29:54.289Z,9.33
2017-11-06T11:32:20.969Z,8.97
2017-11-06T11:34:47.604Z,9.50
2017-11-06T11:37:14.284Z,10.60
2017-11-06T11:39:40.938Z,8.70
2017-11-06T11:42:07.619Z,6.80
2017-11-06T11:44:34.475Z,8.87
2017-11-06T11:47:01.123Z,7.50
2017-11-06T11:49:27.759Z,8.50
2017-11-06T11:51:54.428Z,9.43
2017-11-06T11:54:21.075Z,10.43
2017-11-06T11:56:47.745Z,9.50
2017-11-06T11:59:14.417Z,7.17
2017-11-06T12:01:41.048Z,7.93
2017-11-06T12:04:07.714Z,7.67
2017-11-06T12:06:34.354Z,8.23
2017-11-06T12:09:00.992Z,8.50
2017-11-06T12:11:27.668Z,8.07
2017-11-06T12:13:54.343Z,11.63
2017-11-06T12:16:20.981Z,8.83
2017-11-06T12:18:47.663Z,13.33
2017-11-06T12:21:14.308Z,14.60
2017-11-06T12:23:40.977Z,8.83
2017-11-06T12:26:07.658Z,12.77
2017-11-06T12:28:34.292Z,7.67
2017-11-06T12:31:00.960Z,8.40
2017-11-06T12:33:27.601Z,10.37
2017-11-06T12:35:54.259Z,9.87
2017-11-06T12:38:20.921Z,9.70
2017-11-06T12:40:47.567Z,9.07
2017-11-06T12:43:14.229Z,9.67
2017-11-06T12:45:40.873Z,8.43
2017-11-06T12:48:07.546Z,11.03
2017-11-06T12:50:34.186Z,9.23
2017-11-06T12:53:00.864Z,10.37
2017-11-06T12:55:27.514Z,10.27
2017-11-06T12:57:54.200Z,8.73
2017-11-06T13:00:20.874Z,8.80
2017-11-06T13:02:47.537Z,8.77
2017-11-06T13:05:14.217Z,10.63
2017-11-06T13:07:40.863Z,7.93
2017-11-06T13:10:07.517Z,9.20
2017-11-06T13:12:34.177Z,8.27
2017-11-06T13:15:00.825Z,20.50
2017-11-06T13:17:27.476Z,9.93
2017-11-06T13:19:54.151Z,9.90
2017-11-06T13:22:20.805Z,12.47
2017-11-06T13:24:47.459Z,12.43
2017-11-06T13:27:14.140Z,11.30
2017-11-06T13:29:40.796Z,10.77
2017-11-06T13:32:07.694Z,9.70
2017-11-06T13:34:34.349Z,10.70
2017-11-06T13:37:01.002Z,11.10
2017-11-06T13:39:27.674Z,10.50
2017-11-06T13:41:54.326Z,11.40
2017-11-06T13:44:20.988Z,9.13
2017-11-06T13:46:47.650Z,14.70
2017-11-06T13:49:14.296Z,11.17
2017-11-06T13:51:40.970Z,10.77
2017-11-06T13:54:07.626Z,11.80
2017-11-06T13:56:34.299Z,11.80
2017-11-06T13:59:00.971Z,10.33
2017-11-06T14:01:27.618Z,17.87
2017-11-06T14:03:54.271Z,10.13
2017-11-06T14:06:20.965Z,10.93
2017-11-06T14:08:47.617Z,12.20
2017-11-06T14:11:14.276Z,8.77
2017-11-06T14:13:40.925Z,11.20
2017-11-06T14:16:07.575Z,10.40
2017-11-06T14:18:34.244Z,10.83
2017-11-06T14:21:00.904Z,11.70
2017-11-06T14:23:27.551Z,10.27
2017-11-06T14:25:54.218Z,11.33
2017-11-06T14:28:20.905Z,13.23
2017-11-06T14:30:47.599Z,11.40
2017-11-06T14:33:14.253Z,12.23
2017-11-06T14:35:40.931Z,11.30
2017-11-06T14:38:07.580Z,11.77
2017-11-06T14:40:34.258Z,11.43
2017-11-06T14:43:00.905Z,10.43
2017-11-06T14:45:27.570Z,12.73
2017-11-06T14:47:54.228Z,8.73
2017-11-06T14:50:20.889Z,14.70
2017-11-06T14:52:47.533Z,18.10
2017-11-06T14:55:14.177Z,13.40
2017-11-06T14:57:41.142Z,10.27
2017-11-06T15:00:07.791Z,16.73
2017-11-06T15:02:34.441Z,11.23
2017-11-06T15:05:01.104Z,11.93
2017-11-06T15:07:27.889Z,10.47
2017-11-06T15:09:54.528Z,9.63
2017-11-06T15:12:21.180Z,11.93
2017-11-06T15:14:47.857Z,11.07
2017-11-06T15:17:14.530Z,10.20
2017-11-06T15:19:41.183Z,9.10
2017-11-06T15:22:07.859Z,9.87
2017-11-06T15:24:34.520Z,12.80
2017-11-06T15:27:01.194Z,19.73
2017-11-06T15:29:27.863Z,10.77
2017-11-06T15:31:54.524Z,9.10
2017-11-06T15:34:21.169Z,10.67
2017-11-06T15:36:48.800Z,8.97
2017-11-06T15:39:15.465Z,12.77
2017-11-06T15:41:42.128Z,10.47
2017-11-06T15:44:08.780Z,13.50
2017-11-06T15:46:35.432Z,13.63
2017-11-06T15:49:02.105Z,12.53
2017-11-06T15:51:28.746Z,9.80
2017-11-06T15:53:55.392Z,11.00
2017-11-06T15:56:22.055Z,9.90
2017-11-06T15:58:48.708Z,10.20
2017-11-06T16:01:15.534Z,10.20
2017-11-06T16:03:42.180Z,13.13
2017-11-06T16:06:08.845Z,9.80
2017-11-06T16:08:35.513Z,10.53
2017-11-06T16:11:02.165Z,10.00
2017-11-06T16:13:28.841Z,11.40
2017-11-06T16:15:55.501Z,11.20
2017-11-06T16:18:22.148Z,10.83
2017-11-06T16:20:48.820Z,10.93
2017-11-06T16:23:15.816Z,12.67
2017-11-06T16:25:42.464Z,12.07
2017-11-06T16:28:09.114Z,11.97
2017-11-06T16:30:35.788Z,15.03
2017-11-06T16:33:02.442Z,13.37
2017-11-06T16:35:29.119Z,10.30
2017-11-06T16:37:55.768Z,11.40
2017-11-06T16:40:22.416Z,10.87
2017-11-06T16:42:49.108Z,11.40
2017-11-06T16:45:16.007Z,11.17
2017-11-06T16:47:43.016Z,11.30
2017-11-06T16:50:09.664Z,11.10
2017-11-06T16:52:36.328Z,10.13
2017-11-06T16:55:02.998Z,26.50
2017-11-06T16:57:29.669Z,11.80
2017-11-06T16:59:56.347Z,11.80
2017-11-06T17:02:23.488Z,12.77
2017-11-06T17:04:50.640Z,12.77
2017-11-06T17:07:17.296Z,12.33
2017-11-06T17:09:43.978Z,16.87
2017-11-06T17:12:10.640Z,14.33
2017-11-06T17:14:37.956Z,16.33
2017-11-06T17:17:04.605Z,12.00
2017-11-06T17:19:31.281Z,12.30
2017-11-06T17:21:57.937Z,14.00
2017-11-06T17:24:24.624Z,12.87
2017-11-06T17:26:51.423Z,17.77
2017-11-06T17:29:18.060Z,13.60
2017-11-06T17:31:45.591Z,12.57
2017-11-06T17:34:12.293Z,14.13
2017-11-06T17:36:38.940Z,13.70
2017-11-06T17:39:05.621Z,18.43
2017-11-06T17:41:32.297Z,15.23
2017-11-06T17:43:59.859Z,20.17
2017-11-06T17:46:26.510Z,18.50
2017-11-06T17:48:53.875Z,20.90
2017-11-06T17:51:20.521Z,17.50
2017-11-06T17:53:47.856Z,16.03
2017-11-06T17:56:14.525Z,18.07
2017-11-06T17:58:41.197Z,17.87
2017-11-06T18:01:08.113Z,18.73
2017-11-06T18:03:34.761Z,16.50
2017-11-06T18:06:02.003Z,16.50
2017-11-06T18:08:28.663Z,24.63
2017-11-06T18:10:55.322Z,16.53
2017-11-06T18:13:21.972Z,17.00
2017-11-06T18:15:48.661Z,15.83
2017-11-06T18:18:15.320Z,15.83
2017-11-06T18:20:41.977Z,16.90
2017-11-06T18:23:08.646Z,20.17
2017-11-06T18:25:35.309Z,17.27
2017-11-06T18:28:01.987Z,20.00
2017-11-06T18:30:28.685Z,21.50
2017-11-06T18:32:56.307Z,15.27
2017-11-06T18:35:22.960Z,24.73
2017-11-06T18:37:49.638Z,21.70
2017-11-06T18:40:16.303Z,19.45
2017-11-06T18:42:42.959Z,16.33
2017-11-06T18:45:10.176Z,28.77
2017-11-06T18:47:37.145Z,16.77
2017-11-06T18:50:04.070Z,21.43
2017-11-06T18:52:30.753Z,13.27
2017-11-06T18:54:58.681Z,19.97
2017-11-06T18:57:25.349Z,37.85
2017-11-06T18:59:52.023Z,15.57
2017-11-06T19:02:19.557Z,12.20
2017-11-06T19:04:46.205Z,20.62
2017-11-06T19:07:12.866Z,15.17
2017-11-06T19:09:39.569Z,12.13
2017-11-06T19:12:06.220Z,19.98
2017-11-06T19:14:33.673Z,20.05
2017-11-06T19:17:00.413Z,21.55
2017-11-06T19:19:27.334Z,15.10
2017-11-06T19:21:54.700Z,22.65
2017-11-06T19:24:21.386Z,19.10
2017-11-06T19:26:48.044Z,11.90
2017-11-06T19:29:14.721Z,20.55
2017-11-06T19:31:41.380Z,20.02
2017-11-06T19:34:08.232Z,14.93
2017-11-06T19:36:34.883Z,13.52
2017-11-06T19:39:01.535Z,26.98
2017-11-06T19:41:28.248Z,19.97
2017-11-06T19:43:54.929Z,26.50
2017-11-06T19:46:21.617Z,27.10
2017-11-06T19:48:48.987Z,17.90
2017-11-06T19:51:15.688Z,24.50
2017-11-06T19:53:42.338Z,12.83
2017-11-06T19:56:09.008Z,16.10
2017-11-06T19:58:35.681Z,16.57
2017-11-06T20:01:02.360Z,17.13
2017-11-06T20:03:29.016Z,17.40
2017-11-06T20:05:55.665Z,16.80
2017-11-06T20:08:22.354Z,19.67
2017-11-06T20:10:49.021Z,20.90
2017-11-06T20:13:15.788Z,29.65
2017-11-06T20:15:42.494Z,20.77
2017-11-06T20:18:09.160Z,21.27
2017-11-06T20:20:35.820Z,21.70
2017-11-06T20:23:02.517Z,22.90
2017-11-06T20:25:29.198Z,20.70
2017-11-06T20:27:55.844Z,22.90
2017-11-06T20:30:22.488Z,64.10
2017-11-06T20:32:49.173Z,39.78
2017-11-06T20:35:15.833Z,17.20
2017-11-06T20:37:42.504Z,16.37
2017-11-06T20:40:09.162Z,14.17
2017-11-06T20:42:35.920Z,15.10
2017-11-06T20:45:02.593Z,17.90
2017-11-06T20:47:29.248Z,28.63
2017-11-06T20:49:55.892Z,19.60
2017-11-06T20:52:22.570Z,24.33
2017-11-06T20:54:49.223Z,18.20
2017-11-06T20:57:15.910Z,20.70
2017-11-06T20:59:42.562Z,18.57
2017-11-06T21:02:09.217Z,20.47
2017-11-06T21:04:35.889Z,19.43
2017-11-06T21:07:02.552Z,22.50
2017-11-06T21:09:29.193Z,22.10
2017-11-06T21:11:55.877Z,22.67
2017-11-06T21:14:22.560Z,20.40
2017-11-06T21:16:49.260Z,20.23
2017-11-06T21:19:15.908Z,20.30
2017-11-06T21:21:42.577Z,22.93
2017-11-06T21:24:09.261Z,23.20
2017-11-06T21:26:35.931Z,24.80
2017-11-06T21:29:02.572Z,22.83
2017-11-06T21:31:29.266Z,23.50
2017-11-06T21:33:55.913Z,20.00
2017-11-06T21:36:22.559Z,28.43
2017-11-06T21:38:49.249Z,21.30
2017-11-06T21:41:15.911Z,24.87
2017-11-06T21:43:42.569Z,26.30
2017-11-06T21:46:09.245Z,22.20
2017-11-06T21:48:35.936Z,23.93
2017-11-06T21:51:02.611Z,28.43
2017-11-06T21:53:29.264Z,26.80
2017-11-06T21:55:55.941Z,23.33
2017-11-06T21:58:22.613Z,23.67
2017-11-06T22:00:49.268Z,26.07
2017-11-06T22:03:15.918Z,23.63
2017-11-06T22:05:42.598Z,22.60
2017-11-06T22:08:09.240Z,30.13
2017-11-06T22:10:35.916Z,27.53
2017-11-06T22:13:02.563Z,24.87
2017-11-06T22:15:29.209Z,30.23
2017-11-06T22:17:56.124Z,25.90
2017-11-06T22:20:22.780Z,38.47
2017-11-06T22:22:49.436Z,27.70
2017-11-06T22:25:16.101Z,24.50
2017-11-06T22:27:42.755Z,29.07
2017-11-06T22:30:09.413Z,26.77
2017-11-06T22:32:36.089Z,32.40
2017-11-06T22:35:02.776Z,28.13
2017-11-06T22:37:29.433Z,27.77
2017-11-06T22:39:56.085Z,29.23
2017-11-06T22:42:22.757Z,32.23
2017-11-06T22:44:49.429Z,34.80
2017-11-06T22:47:16.072Z,47.67
2017-11-06T22:49:42.737Z,45.87
2017-11-06T22:52:09.408Z,39.50
2017-11-06T22:54:36.085Z,49.67
2017-11-06T22:57:02.741Z,43.87
2017-11-06T22:59:29.387Z,46.60
2017-11-06T23:01:56.067Z,49.23
2017-11-06T23:04:23.940Z,48.17
2017-11-06T23:06:50.589Z,56.27
2017-11-06T23:09:17.269Z,44.63
2017-11-06T23:11:43.908Z,42.50
2017-11-06T23:14:10.584Z,39.43
2017-11-06T23:16:37.239Z,46.37
2017-11-06T23:19:03.902Z,43.47
2017-11-06T23:21:30.584Z,48.20
2017-11-06T23:23:57.231Z,51.77
2017-11-06T23:26:23.899Z,46.60
2017-11-06T23:28:50.570Z,42.37
2017-11-06T23:31:17.221Z,41.60
2017-11-06T23:33:43.869Z,51.27
2017-11-06T23:36:10.545Z,41.63
2017-11-06T23:38:37.188Z,46.50
2017-11-06T23:41:03.837Z,42.20
2017-11-06T23:43:30.515Z,31.47
2017-11-06T23:45:57.188Z,39.00
2017-11-06T23:48:23.836Z,33.73
2017-11-06T23:50:50.481Z,34.13
2017-11-06T23:53:17.165Z,32.50
2017-11-06T23:55:43.815Z,32.93
2017-11-06T23:58:10.487Z,29.20
